Map

Track Data

SID SEASON NUMBER BASIN SUBBASIN NAME ISO_TIME NATURE LAT LON WMO_WIND WMO_PRES WMO_AGENCY TRACK_TYPE DIST2LAND LANDFALL IFLAG USA_AGENCY USA_ATCF_ID USA_LAT USA_LON USA_RECORD USA_STATUS USA_WIND USA_PRES USA_SSHS USA_R34_NE USA_R34_SE USA_R34_SW USA_R34_NW USA_R50_NE USA_R50_SE USA_R50_SW USA_R50_NW USA_R64_NE USA_R64_SE USA_R64_SW USA_R64_NW USA_POCI USA_ROCI USA_RMW USA_EYE TOKYO_LAT TOKYO_LON TOKYO_GRADE TOKYO_WIND TOKYO_PRES TOKYO_R50_DIR TOKYO_R50_LONG TOKYO_R50_SHORT TOKYO_R30_DIR TOKYO_R30_LONG TOKYO_R30_SHORT TOKYO_LAND CMA_LAT CMA_LON CMA_CAT CMA_WIND CMA_PRES HKO_LAT HKO_LON HKO_CAT HKO_WIND HKO_PRES NEWDELHI_LAT NEWDELHI_LON NEWDELHI_GRADE NEWDELHI_WIND NEWDELHI_PRES NEWDELHI_CI NEWDELHI_DP NEWDELHI_POCI REUNION_LAT REUNION_LON REUNION_TYPE REUNION_WIND REUNION_PRES REUNION_TNUM REUNION_CI REUNION_RMW REUNION_R34_NE REUNION_R34_SE REUNION_R34_SW REUNION_R34_NW REUNION_R50_NE REUNION_R50_SE REUNION_R50_SW REUNION_R50_NW REUNION_R64_NE REUNION_R64_SE REUNION_R64_SW REUNION_R64_NW BOM_LAT BOM_LON BOM_TYPE BOM_WIND BOM_PRES BOM_TNUM BOM_CI BOM_RMW BOM_R34_NE BOM_R34_SE BOM_R34_SW BOM_R34_NW BOM_R50_NE BOM_R50_SE BOM_R50_SW BOM_R50_NW BOM_R64_NE BOM_R64_SE BOM_R64_SW BOM_R64_NW BOM_ROCI BOM_POCI BOM_EYE BOM_POS_METHOD BOM_PRES_METHOD NADI_LAT NADI_LON NADI_CAT NADI_WIND NADI_PRES WELLINGTON_LAT WELLINGTON_LON WELLINGTON_WIND WELLINGTON_PRES DS824_LAT DS824_LON DS824_STAGE DS824_WIND DS824_PRES TD9636_LAT TD9636_LON TD9636_STAGE TD9636_WIND TD9636_PRES TD9635_LAT TD9635_LON TD9635_WIND TD9635_PRES TD9635_ROCI NEUMANN_LAT NEUMANN_LON NEUMANN_CLASS NEUMANN_WIND NEUMANN_PRES MLC_LAT MLC_LON MLC_CLASS MLC_WIND MLC_PRES USA_GUST BOM_GUST BOM_GUST_PER REUNION_GUST REUNION_GUST_PER USA_SEAHGT USA_SEARAD_NE USA_SEARAD_SE USA_SEARAD_SW USA_SEARAD_NW STORM_SPEED STORM_DIR
1985177N10258 1985 47 EP MM DOLORES 1985-06-26 06:00:00 TS 9.60000 -102.500 25 hurdat_epa main 850 850 O_________O___ hurdat_epa EP041985 9.60000 -102.500 TD 25 -1 9.60000 -102.500 1 25 10 276
1985177N10258 1985 47 EP MM DOLORES 1985-06-26 09:00:00 TS 9.65063 -103.018 main 861 861 P_________P___ EP041985 9.65020 -103.020 TD 27 -1 9.65192 -103.014 1 27 10 276
1985177N10258 1985 47 EP MM DOLORES 1985-06-26 12:00:00 TS 9.70000 -103.500 30 hurdat_epa main 885 885 O_________O___ hurdat_epa EP041985 9.70000 -103.500 TD 30 -1 9.70000 -103.500 1 30 9 276
1985177N10258 1985 47 EP MM DOLORES 1985-06-26 15:00:00 TS 9.74815 -103.921 main 903 892 P_________P___ EP041985 9.74990 -103.915 TD 30 -1 9.74293 -103.939 1 30 8 277
1985177N10258 1985 47 EP MM DOLORES 1985-06-26 18:00:00 TS 9.79650 -104.310 30 hurdat_epa main 908 908 O_________P___ hurdat_epa EP041985 9.80000 -104.300 TD 30 -1 9.78601 -104.341 1 30 8 277
1985177N10258 1985 47 EP MM DOLORES 1985-06-26 21:00:00 TS 9.84087 -104.706 main 925 919 P_________P___ EP041985 9.84245 -104.700 TD 30 -1 9.83611 -104.722 1 30 8 278
1985177N10258 1985 47 EP MM DOLORES 1985-06-27 00:00:00 TS 9.90000 -105.100 30 hurdat_epa main 934 934 O_________O___ hurdat_epa EP041985 9.90000 -105.100 TD 30 -1 9.90000 -105.100 1 30 8 281
1985177N10258 1985 47 EP MM DOLORES 1985-06-27 03:00:00 TS 9.98867 -105.499 main 945 945 P_________P___ EP041985 9.99245 -105.500 TD 30 -1 9.97732 -105.496 1 30 8 284
1985177N10258 1985 47 EP MM DOLORES 1985-06-27 06:00:00 TS 10.0924 -105.898 30 hurdat_epa main 952 948 O_________P___ hurdat_epa EP041985 10.1000 -105.900 TD 30 -1 10.0698 -105.893 1 30 8 285
1985177N10258 1985 47 EP MM DOLORES 1985-06-27 09:00:00 TS 10.1943 -106.298 main 955 952 P_________P___ EP041985 10.2000 -106.300 TD 30 -1 10.1773 -106.293 1 30 8 285
1985177N10258 1985 47 EP MM DOLORES 1985-06-27 12:00:00 TS 10.3000 -106.700 30 hurdat_epa main 959 957 O_________O___ hurdat_epa EP041985 10.3000 -106.700 TD 30 -1 10.3000 -106.700 1 30 8 284
1985177N10258 1985 47 EP MM DOLORES 1985-06-27 15:00:00 TS 10.3894 -107.095 main 965 964 P_________P___ EP041985 10.3849 -107.093 TD 32 -1 10.4029 -107.102 1 32 8 285
1985177N10258 1985 47 EP MM DOLORES 1985-06-27 18:00:00 TS 10.5061 -107.503 35 hurdat_epa main 973 968 O_________P___ hurdat_epa EP041985 10.5000 -107.500 TS 35 0 10.5246 -107.513 1 35 9 289
1985177N10258 1985 47 EP MM DOLORES 1985-06-27 21:00:00 TS 10.6735 -107.937 main 973 973 P_________P___ EP041985 10.6699 -107.935 TS 37 0 10.6840 -107.943 1 37 10 294
1985177N10258 1985 47 EP MM DOLORES 1985-06-28 00:00:00 TS 10.9000 -108.400 40 hurdat_epa main 981 978 O_________O___ hurdat_epa EP041985 10.9000 -108.400 TS 40 0 10.9000 -108.400 2 40 11 298
1985177N10258 1985 47 EP MM DOLORES 1985-06-28 03:00:00 TS 11.1763 -108.884 main 984 981 P_________P___ EP041985 11.1699 -108.885 TS 42 0 11.1953 -108.881 2 42 12 302
1985177N10258 1985 47 EP MM DOLORES 1985-06-28 06:00:00 TS 11.5113 -109.398 45 hurdat_epa main 990 982 O_________P___ hurdat_epa EP041985 11.5000 -109.400 TS 45 0 11.5452 -109.392 2 45 13 305
1985177N10258 1985 47 EP MM DOLORES 1985-06-28 09:00:00 TS 11.8999 -109.934 main 982 976 P_________P___ EP041985 11.8924 -109.935 TS 47 0 11.9225 -109.932 2 47 13 306
1985177N10258 1985 47 EP MM DOLORES 1985-06-28 12:00:00 TS 12.3000 -110.500 50 hurdat_epa main 983 981 O_________O___ hurdat_epa EP041985 12.3000 -110.500 TS 50 0 12.3000 -110.500 2 50 14 304
1985177N10258 1985 47 EP MM DOLORES 1985-06-28 15:00:00 TS 12.6632 -111.100 main 991 991 P_________P___ EP041985 12.6650 -111.100 TS 57 0 12.6581 -111.101 2 57 14 301
1985177N10258 1985 47 EP MM DOLORES 1985-06-28 18:00:00 TS 13.0000 -111.700 65 hurdat_epa main 1012 1011 O_________O___ hurdat_epa EP041985 13.0000 -111.700 HU 65 1 13.0000 -111.700 3 65 13 300
1985177N10258 1985 47 EP MM DOLORES 1985-06-28 21:00:00 TS 13.3024 -112.251 main 1034 1026 P_________P___ EP041985 13.2998 -112.250 HU 65 1 13.3103 -112.254 3 65 12 299
1985177N10258 1985 47 EP MM DOLORES 1985-06-29 00:00:00 TS 13.6000 -112.800 65 hurdat_epa main 1050 1050 O_________O___ hurdat_epa EP041985 13.6000 -112.800 HU 65 1 13.6000 -112.800 4 65 13 300
1985177N10258 1985 47 EP MM DOLORES 1985-06-29 03:00:00 TS 13.9474 -113.391 main 1068 1050 P_________P___ EP041985 13.9649 -113.392 HU 70 1 13.8950 -113.387 4 67 13 300
1985177N10258 1985 47 EP MM DOLORES 1985-06-29 06:00:00 TS 14.2702 -113.998 75 hurdat_epa main 1050 1048 O_________P___ hurdat_epa EP041985 14.3000 -114.000 HU 75 1 14.1806 -113.993 4 70 13 295
1985177N10258 1985 47 EP MM DOLORES 1985-06-29 09:00:00 TS 14.5045 -114.601 main 1057 1051 P_________P___ EP041985 14.5223 -114.600 HU 75 1 14.4509 -114.603 4 72 12 290
1985177N10258 1985 47 EP MM DOLORES 1985-06-29 12:00:00 TS 14.7000 -115.200 75 hurdat_epa main 1067 1067 O_________O___ hurdat_epa EP041985 14.7000 -115.200 HU 75 1 14.7000 -115.200 4 75 12 289
1985177N10258 1985 47 EP MM DOLORES 1985-06-29 15:00:00 TS 14.9083 -115.802 main 1082 1079 P_________P___ EP041985 14.9000 -115.815 HU 82 1 14.9332 -115.765 4 78 12 290
1985177N10258 1985 47 EP MM DOLORES 1985-06-29 18:00:00 TS 15.1111 -116.379 90 hurdat_epa main 1101 1098 O_________P___ hurdat_epa EP041985 15.1000 -116.400 HU 90 2 15.1442 -116.315 4 82 11 291
1985177N10258 1985 47 EP MM DOLORES 1985-06-29 21:00:00 TS 15.3193 -116.895 main 1116 1115 P_________P___ EP041985 15.3147 -116.908 HU 90 2 15.3332 -116.858 4 86 11 292
1985177N10258 1985 47 EP MM DOLORES 1985-06-30 00:00:00 TS 15.5000 -117.400 90 hurdat_epa main 1134 1134 O_________O___ hurdat_epa EP041985 15.5000 -117.400 HU 90 2 15.5000 -117.400 4 90 11 286
1985177N10258 1985 47 EP MM DOLORES 1985-06-30 03:00:00 TS 15.6141 -117.945 main 1163 1163 P_________P___ EP041985 15.6074 -117.943 HU 90 2 15.6340 -117.951 4 90 11 281
1985177N10258 1985 47 EP MM DOLORES 1985-06-30 06:00:00 TS 15.7124 -118.500 90 hurdat_epa main 1201 1201 O_________P___ hurdat_epa EP041985 15.7000 -118.500 HU 90 2 15.7494 -118.501 4 90 11 282
1985177N10258 1985 47 EP MM DOLORES 1985-06-30 09:00:00 TS 15.8424 -119.050 main 1233 1224 P_________P___ EP041985 15.8349 -119.050 HU 90 2 15.8652 -119.051 4 90 11 285
1985177N10258 1985 47 EP MM DOLORES 1985-06-30 12:00:00 TS 16.0000 -119.600 90 hurdat_epa main 1247 1247 O_________O___ hurdat_epa EP041985 16.0000 -119.600 HU 90 2 16.0000 -119.600 4 90 11 288
1985177N10258 1985 47 EP MM DOLORES 1985-06-30 15:00:00 TS 16.1837 -120.149 main 1263 1263 P_________P___ EP041985 16.1924 -120.150 HU 90 2 16.1576 -120.146 4 90 11 290
1985177N10258 1985 47 EP MM DOLORES 1985-06-30 18:00:00 TS 16.3848 -120.698 90 hurdat_epa main 1288 1288 O_________P___ hurdat_epa EP041985 16.4000 -120.700 HU 90 2 16.3393 -120.693 4 90 11 290
1985177N10258 1985 47 EP MM DOLORES 1985-06-30 21:00:00 TS 16.5709 -121.254 main 1316 1316 P_________P___ EP041985 16.5774 -121.258 HU 90 2 16.5514 -121.244 4 90 11 291
1985177N10258 1985 47 EP MM DOLORES 1985-07-01 00:00:00 TS 16.8000 -121.800 90 hurdat_epa main 1339 1339 O_________O___ hurdat_epa EP041985 16.8000 -121.800 HU 90 2 16.8000 -121.800 4 90 11 299
1985177N10258 1985 47 EP MM DOLORES 1985-07-01 03:00:00 TS 17.1181 -122.305 main 1355 1355 P_________P___ EP041985 17.1346 -122.285 HU 95 2 17.0683 -122.364 4 92 12 304
1985177N10258 1985 47 EP MM DOLORES 1985-07-01 06:00:00 TS 17.4686 -122.834 100 hurdat_epa main 1367 1367 O_________P___ hurdat_epa EP041985 17.5000 -122.800 HU 100 3 17.3744 -122.936 4 95 13 301
1985177N10258 1985 47 EP MM DOLORES 1985-07-01 09:00:00 TS 17.7740 -123.455 main 1405 1403 P_________P___ EP041985 17.7926 -123.435 HU 100 3 17.7183 -123.515 4 97 14 298
1985177N10258 1985 47 EP MM DOLORES 1985-07-01 12:00:00 TS 18.1000 -124.100 100 hurdat_epa main 1419 1418 O_________O___ hurdat_epa EP041985 18.1000 -124.100 HU 100 3 18.1000 -124.100 4 100 14 301
1985177N10258 1985 47 EP MM DOLORES 1985-07-01 15:00:00 TS 18.4898 -124.701 main 1427 1425 P_________P___ EP041985 18.4697 -124.708 HU 95 2 18.5499 -124.680 4 95 14 306
1985177N10258 1985 47 EP MM DOLORES 1985-07-01 18:00:00 TS 18.9322 -125.292 90 hurdat_epa main 1438 1430 O_________P___ hurdat_epa EP041985 18.9000 -125.300 HU 90 2 19.0289 -125.269 4 90 15 310
1985177N10258 1985 47 EP MM DOLORES 1985-07-01 21:00:00 TS 19.4344 -125.882 main 1445 1438 P_________P___ EP041985 19.4146 -125.885 HU 85 2 19.4935 -125.874 4 85 15 310
1985177N10258 1985 47 EP MM DOLORES 1985-07-02 00:00:00 TS 19.9000 -126.500 80 hurdat_epa main 1457 1457 O_________O___ hurdat_epa EP041985 19.9000 -126.500 HU 80 1 19.9000 -126.500 4 80 15 303
1985177N10258 1985 47 EP MM DOLORES 1985-07-02 03:00:00 TS 20.2398 -127.186 main 1494 1487 P_________P___ EP041985 20.2525 -127.193 HU 72 1 20.2018 -127.167 4 75 14 294
1985177N10258 1985 47 EP MM DOLORES 1985-07-02 06:00:00 TS 20.4850 -127.888 65 hurdat_epa main 1534 1534 O_________P___ hurdat_epa EP041985 20.5000 -127.900 HU 65 1 20.4399 -127.851 4 70 14 289
1985177N10258 1985 47 EP MM DOLORES 1985-07-02 09:00:00 TS 20.6680 -128.552 main 1583 1583 P_________P___ EP041985 20.6797 -128.558 HU 62 0 20.6330 -128.535 4 65 13 284
1985177N10258 1985 47 EP MM DOLORES 1985-07-02 12:00:00 TS 20.8000 -129.200 60 hurdat_epa main 1630 1630 O_________O___ hurdat_epa EP041985 20.8000 -129.200 TS 60 0 20.8000 -129.200 2 60 12 281
1985177N10258 1985 47 EP MM DOLORES 1985-07-02 15:00:00 TS 20.9100 -129.859 main 1687 1687 P_________P___ EP041985 20.8924 -129.865 TS 57 0 20.9628 -129.839 2 56 12 281
1985177N10258 1985 47 EP MM DOLORES 1985-07-02 18:00:00 TS 21.0267 -130.488 55 hurdat_epa main 1736 1736 O_________P___ hurdat_epa EP041985 21.0000 -130.500 TS 55 0 21.1067 -130.454 2 52 12 285
1985177N10258 1985 47 EP MM DOLORES 1985-07-02 21:00:00 TS 21.2003 -131.054 main 1781 1781 P_________P___ EP041985 21.1846 -131.058 TS 50 0 21.2473 -131.042 2 48 11 290
1985177N10258 1985 47 EP MM DOLORES 1985-07-03 00:00:00 TS 21.4000 -131.600 45 hurdat_epa main 1812 1812 O_________O___ hurdat_epa EP041985 21.4000 -131.600 TS 45 0 21.4000 -131.600 2 45 11 290
1985177N10258 1985 47 EP MM DOLORES 1985-07-03 03:00:00 TS 21.5964 -132.205 main 1829 1829 P_________P___ EP041985 21.6001 -132.223 TS 37 0 21.5852 -132.153 2 40 12 290
1985177N10258 1985 47 EP MM DOLORES 1985-07-03 06:00:00 TS 21.7961 -132.769 30 hurdat_epa main 1849 1846 O_________P___ hurdat_epa EP041985 21.8000 -132.800 TD 30 -1 21.7845 -132.675 2 35 10 294
1985177N10258 1985 47 EP MM DOLORES 1985-07-03 09:00:00 TS 22.0033 -133.212 main 1857 1855 P_________P___ EP041985 22.0071 -133.230 TD 27 -1 21.9916 -133.159 2 30 9 298
1985177N10258 1985 47 EP MM DOLORES 1985-07-03 12:00:00 TS 22.2000 -133.600 25 hurdat_epa main 1866 1864 O_________O___ hurdat_epa EP041985 22.2000 -133.600 TD 25 -1 22.2000 -133.600 1 25 8 296
1985177N10258 1985 47 EP MM DOLORES 1985-07-03 15:00:00 TS 22.3567 -134.012 main 1876 1876 P_________P___ EP041985 22.3425 -134.015 TD 25 -1 22.3993 -134.002 1 25 8 294
1985177N10258 1985 47 EP MM DOLORES 1985-07-03 18:00:00 TS 22.5248 -134.390 25 hurdat_epa main 1895 1887 O_________P___ hurdat_epa EP041985 22.5000 -134.400 TD 25 -1 22.5992 -134.361 1 25 8 302
1985177N10258 1985 47 EP MM DOLORES 1985-07-03 21:00:00 TS 22.7566 -134.709 main 1891 1890 P_________P___ EP041985 22.7423 -134.715 TD 25 -1 22.7995 -134.689 1 25 7 310
1985177N10258 1985 47 EP MM DOLORES 1985-07-04 00:00:00 TS 23.0000 -135.000 25 hurdat_epa main 1897 1895 O_________O___ hurdat_epa EP041985 23.0000 -135.000 TD 25 -1 23.0000 -135.000 1 25 7 309
1985177N10258 1985 47 EP MM DOLORES 1985-07-04 03:00:00 TS 23.2025 -135.308 main 1903 1902 P_________P___ EP041985 23.2074 -135.300 TD 25 -1 23.1877 -135.331 1 25 7 305
1985177N10258 1985 47 EP MM DOLORES 1985-07-04 06:00:00 TS 23.3943 -135.611 25 hurdat_epa main 1909 1909 O_________P___ hurdat_epa EP041985 23.4000 -135.600 TD 25 -1 23.3774 -135.645 1 25 7 305
1985177N10258 1985 47 EP MM DOLORES 1985-07-04 09:00:00 TS 23.5946 -135.921 main 1916 1916 P_________P___ EP041985 23.6000 -135.915 TD 25 -1 23.5784 -135.937 1 25 7 307
1985177N10258 1985 47 EP MM DOLORES 1985-07-04 12:00:00 TS 23.8000 -136.200 25 hurdat_epa main 1924 1924 O_________O___ hurdat_epa EP041985 23.8000 -136.200 TD 25 -1 23.8000 -136.200 1 25 6 311
1985177N10258 1985 47 EP MM DOLORES 1985-07-04 15:00:00 TS 23.9923 -136.423 main 1925 1925 P_________P___ EP041985 23.9774 -136.415 TD 25 -1 24.0370 -136.445 1 25 6 318
1985177N10258 1985 47 EP MM DOLORES 1985-07-04 18:00:00 TS 24.2243 -136.615 25 hurdat_epa main 1926 1919 O_________P___ hurdat_epa EP041985 24.2000 -136.600 TD 25 -1 24.2973 -136.660 1 25 7 327
1985177N10258 1985 47 EP MM DOLORES 1985-07-04 21:00:00 TS 24.5416 -136.817 main 1920 1907 P_________P___ EP041985 24.5275 -136.807 TD 25 -1 24.5840 -136.845 1 25 8 333
1985177N10258 1985 47 EP MM DOLORES 1985-07-05 00:00:00 TS 24.9000 -137.000 25 hurdat_epa main 1908 1896 O_________O___ hurdat_epa EP041985 24.9000 -137.000 TD 25 -1 24.9000 -137.000 1 25 8 336
1985177N10258 1985 47 EP MM DOLORES 1985-07-05 03:00:00 TS 25.2507 -137.161 main 1898 1884 P_________P___ EP041985 25.2425 -137.173 TD 25 -1 25.2753 -137.128 1 25 8 340
1985177N10258 1985 47 EP MM DOLORES 1985-07-05 06:00:00 TS 25.6184 -137.282 25 hurdat_epa main 1886 1856 O_________P___ hurdat_epa EP041985 25.6000 -137.300 TD 25 -1 25.6737 -137.228 1 25 8 348
1985177N10258 1985 47 EP MM DOLORES 1985-07-05 09:00:00 TS 26.0263 -137.347 main 1856 1834 P_________P___ EP041985 26.0150 -137.358 TD 25 -1 26.0603 -137.314 1 25 8 353
1985177N10258 1985 47 EP MM DOLORES 1985-07-05 12:00:00 TS 26.4000 -137.400 25 hurdat_epa main 1834 1819 O_________O___ hurdat_epa EP041985 26.4000 -137.400 TD 25 -1 26.4000 -137.400 1 25 7 349
1985177N10258 1985 47 EP MM DOLORES 1985-07-05 15:00:00 TS 26.6795 -137.488 main 1820 1812 P_________P___ EP041985 26.6825 -137.485 TD 25 -1 26.6705 -137.496 1 25 5 340
1985177N10258 1985 47 EP MM DOLORES 1985-07-05 18:00:00 TS 26.9000 -137.600 25 hurdat_epa main 1813 O_________O___ hurdat_epa EP041985 26.9000 -137.600 TD 25 -1 26.9000 -137.600 1 25 5 336

About IBTrACS Database

This database is a web-friendly format of International Best Track Archive for Climate Stewardship (IBTrACS), a global best track data archive curated by NOAA dating back to 1842.

Updated: 2021-12-03